Andrés Escobar

Scout - Platense
13 Nov 2027
Samstag
Verarbeitung

Persönlichkeit

Anpassungsfähigkeit (18) Ehrgeiz (3) Kontroverse (10) Loyalität (1) Druck (1) Professionalität (3) Fairness (9) Temperament (15)

Profil

Trainerstil Demokratisch
Lizenz Kontinentale Pro
Entschlossenheit 5
Menschenführung 11
Motivation 10
Disziplin 12
Arbeitszufriedenheit
88%
Ermüdung
0%
Rolle Scout
Gehalt 86.8K p/W
Vertrag 14.03.2028

Leistung

Verhalten Gut
Trainingseffektivität
34%
Spielerentwicklung
25%
Verletzungsprävention
30%
Taktische Umsetzung
35%

Letzte Ereignisse

Nahm an einer Scouting-Besprechung teil 7T her
Nahm an einer Scouting-Besprechung teil 14T her
Nahm an einer Scouting-Besprechung teil 21T her
Nahm an einer Scouting-Besprechung teil 28T her
Nahm an einer Scouting-Besprechung teil 35T her
Nahm an einer Scouting-Besprechung teil 42T her
Nahm an einer Scouting-Besprechung teil 49T her
Nahm an einer Scouting-Besprechung teil 56T her

Aktuell beobachtet

87
Spieler Verein Status Fähigkeit Vertrauen Beobachtet Zuletzt beobachtet Letzte Stimme
Tobías Andrada Betis Aktiv 117 / 128 40% 3 29.05.2027 -
Joel McGregor Swindon Town Aktiv 114 / 107 40% 3 29.05.2027 -
Tobías Ramírez Sevilla Aktiv 121 / 116 40% 3 23.05.2027 -
Benicio Morales Veracruz Aktiv 70 / 76 40% 2 20.05.2027 -
Leonardo Mendicino Bari Aktiv 101 / 144 40% 1 20.05.2027 -
Thiago Silvero Sevilla Aktiv 135 / 123 40% 1 19.05.2027 -
Christos Mouzakitis Hull City Aktiv 124 / 131 40% 1 18.05.2027 -
T-Jay Parfitt Cardiff City Aktiv 83 / 82 40% 1 18.05.2027 -
Facundo Balatti Penarol Aktiv 102 / 126 40% 1 06.05.2027 -
Leandro Martins Benfica Aktiv 110 / 116 40% 1 06.05.2027 -
Sascha Britschgi Catanzaro Aktiv 119 / 107 40% 1 04.05.2027 -
Sam Curtis Swindon Town Aktiv 111 / 105 40% 1 04.05.2027 -
Zahir Ibarra Elche Aktiv 117 / 95 40% 1 24.04.2027 -
Jofre Torrents Ajax Aktiv 137 / 141 40% 2 15.04.2027 -
Edwin Asamoah Berekum Chelsea Aktiv 105 / 96 40% 1 15.04.2027 -
Diego Cheuquepal Racing Aktiv 89 / 90 40% 1 10.04.2027 -
Juan David Arizala Udinese Aktiv 136 / 130 40% 2 07.04.2027 -
Bakary Haïdara Hearts of Oak Aktiv 94 / 104 40% 1 06.04.2027 -
Sergio Castillo Cortulua Aktiv 113 / 104 40% 1 03.04.2027 -
Maeson King Blackpool Aktiv 120 / 105 40% 1 30.03.2027 -
Abraham Paintsil Hasaacas Aktiv 89 / 86 40% 1 30.03.2027 -
Axel Frugone Betis Aktiv 114 / 123 40% 3 25.03.2027 -
Chema Andrés Liverpool Aktiv 124 / 149 40% 1 22.03.2027 -
Riquelme Thompson-Jones Shrewsbury Town Aktiv 92 / 112 40% 1 20.03.2027 -
Jonathan De Irastorza Levante Aktiv 108 / 114 40% 1 20.03.2027 -
Mohammed Wakaso Hasaacas Aktiv 108 / 105 40% 1 18.03.2027 -
James Dornelly Peterborough United Aktiv 118 / 113 40% 1 16.03.2027 -
Ignacio Perruzzi Celta Aktiv 105 / 126 40% 1 13.03.2027 -
Martín Lucero Vis Pesaro Aktiv 74 / 100 40% 1 04.03.2027 -
Sergey Gribov Dinamo Bryansk Aktiv 87 / 77 40% 1 02.02.2027 -
Victor Bak FC Midtjylland Aktiv 113 / 119 40% 1 28.11.2026 -
Shea Charles Southampton Aktiv 127 / 143 40% 1 28.11.2026 -
Nazareno Colombo Racing Club Aktiv 124 / 135 40% 2 26.11.2026 -
Tiago Palacios Estudiantes Aktiv 141 / 140 40% 2 24.11.2026 -
Jeon Jin-Woo Sheffield Wednesday Aktiv 138 / 113 40% 1 19.11.2026 -
Nazar Voloshyn Dynamo Kyiv Aktiv 107 / 123 40% 1 19.11.2026 -
Francisco Álvarez Argentinos Juniors Aktiv 120 / 117 40% 4 17.11.2026 -
Tyrell Malacia Derby County Aktiv 118 / 155 40% 2 17.11.2026 -
Martín Ortega Newell's Old Boys Aktiv 126 / 123 40% 1 17.11.2026 -
Tyrese Campbell Sheffield United Aktiv 136 / 126 40% 1 17.11.2026 -
Joaquín García Vélez Aktiv 121 / 117 40% 1 13.11.2026 -
Juan Manuel Sanabria Real Salt Lake Aktiv 106 / 106 40% 1 12.11.2026 -
Nicolás Romero Minnesota United FC Aktiv 120 / 109 40% 1 12.11.2026 -
Santiago Pierotti Lecce Aktiv 137 / 125 40% 1 11.11.2026 -
Santiago González Tigre Aktiv 134 / 118 40% 1 10.11.2026 -
Esequiel Barco Spartak Moscow Aktiv 154 / 146 40% 2 07.11.2026 -
Jack Rudoni Coventry City Aktiv 139 / 143 40% 1 07.11.2026 -
Relebohile Mofokeng Orlando Pirates Aktiv 134 / 136 40% 1 06.11.2026 -
Rodrigo Herrera Newell's Old Boys Aktiv 129 / 110 40% 1 05.11.2026 -
David Ayala Inter Miami CF Aktiv 130 / 141 40% 1 05.11.2026 -
Franco Ibarra Rosario Central Aktiv 117 / 118 40% 1 04.11.2026 -
Juan Bisanz Huracán Aktiv 132 / 140 40% 1 01.11.2026 -
Emiliano Álvarez Progreso Aktiv 117 / 113 40% 1 30.10.2026 -
Joaquín Pereyra Minnesota United FC Aktiv 120 / 113 40% 1 30.10.2026 -
Damián Puebla Orenburg Aktiv 130 / 140 40% 1 29.10.2026 -
Facundo Mura Inter Miami CF Aktiv 145 / 129 40% 2 27.10.2026 -
Rodrigo González Aldosivi Aktiv 120 / 131 40% 1 27.10.2026 -
Mateo Mendoza Godoy Cruz Aktiv 132 / 135 40% 1 25.10.2026 -
Conrad Wallem Aalborg Aktiv 113 / 118 40% 1 24.10.2026 -
Gonzalo Luján Inter Miami CF Aktiv 112 / 108 40% 1 24.10.2026 -
Tomás Escalante Plaza Colonia Aktiv 109 / 129 40% 1 24.10.2026 -
Facundo Miño Deportivo Riestra Aktiv 126 / 114 40% 2 21.10.2026 -
Marcos López San Martín Aktiv 119 / 122 40% 2 17.10.2026 -
Vicente Poggi Godoy Cruz Aktiv 135 / 117 40% 1 15.10.2026 -
Camilo Durán Bloemfontein Celtic Aktiv 105 / 126 40% 1 15.10.2026 -
Aarón Molinas Defensa y Justicia Aktiv 113 / 115 40% 1 13.10.2026 -
Gastón Benedetti Estudiantes Aktiv 124 / 138 40% 1 12.10.2026 -
Juan Pablo Freytes Fluminense Aktiv 115 / 131 40% 1 11.10.2026 -
Damián Fernández Defensa y Justicia Aktiv 113 / 113 40% 1 06.10.2026 -
Aidan Morris Middlesbrough Aktiv 145 / 151 40% 1 06.10.2026 -
Nicolás Fonseca Leon Aktiv 140 / 137 40% 2 29.09.2026 -
Ramiro Sordo Santos Laguna Aktiv 141 / 134 40% 1 29.09.2026 -
Jannenson Sarmiento Junior Aktiv 112 / 127 40% 1 27.09.2026 -
Luca Langoni New England Revolution Aktiv 114 / 115 40% 1 27.09.2026 -
Nicolás Castro Toluca Aktiv 113 / 122 40% 1 22.09.2026 -
Javier Altamirano Universidad de Chile Aktiv 135 / 114 40% 1 22.09.2026 -
José Luis Caicedo Barranquilla Aktiv 121 / 127 40% 1 17.09.2026 -
Elías Báez Atlanta United FC Aktiv 107 / 135 40% 1 17.09.2026 -
Ramón Juárez Club America Aktiv 146 / 152 40% 2 15.09.2026 -
Franco Romero Toluca Aktiv 137 / 109 40% 1 15.09.2026 -
Lucas Souto Defensa y Justicia Aktiv 118 / 130 40% 1 14.09.2026 -
Mariano Gómez Ferencvaros Aktiv 116 / 104 40% 1 13.09.2026 -
Nahuel Herrera Penarol Aktiv 111 / 125 40% 1 13.09.2026 -
Alejandro Piedrahita Deportivo Pereira Aktiv 115 / 109 40% 1 12.09.2026 -
Diego Martinez La Equidad Aktiv 117 / 133 40% 1 12.09.2026 -
Tobías Reinhart Universidad de Chile Aktiv 129 / 112 40% 1 11.09.2026 -
Santiago Simón Toluca Aktiv 114 / 146 40% 1 08.09.2026 -